Time;durP1;ratioP1;P1;durP2;ratioP2;P2;SDS_P1;SDS_P2;PMS_P1;PMS_P2;Temp;Humidity;BMP_temperature;BMP_pressure;BME280_temperature;BME280_humidity;BME280_pressure;Samples;Min_cycle;Max_cycle;Signal;HPM_P1;HPM_P2
2023/05/11 00:01:53;;;;;;;10.02;5.18;;;11.20;99.90;;;;;;5080261;28;20053;-57
2023/05/11 00:04:19;;;;;;;9.43;4.55;;;10.90;99.90;;;;;;5080837;28;20047;-57
2023/05/11 00:06:45;;;;;;;9.82;4.97;;;11.20;99.90;;;;;;5079453;28;20248;-56
2023/05/11 00:09:11;;;;;;;8.23;4.55;;;11.30;99.90;;;;;;5081110;28;20047;-57
2023/05/11 00:11:37;;;;;;;8.15;4.00;;;11.00;99.90;;;;;;5078609;28;20055;-57
2023/05/11 00:14:03;;;;;;;8.80;4.30;;;11.10;99.90;;;;;;5081325;28;20060;-57
2023/05/11 00:16:28;;;;;;;8.27;4.45;;;11.10;99.90;;;;;;5078988;28;20047;-57
2023/05/11 00:18:54;;;;;;;9.35;4.57;;;11.20;99.90;;;;;;5079259;28;20488;-57
2023/05/11 00:21:21;;;;;;;9.30;5.35;;;11.20;99.90;;;;;;5079174;28;20036;-56
2023/05/11 00:23:48;;;;;;;10.50;5.32;;;11.30;99.90;;;;;;5078272;28;20040;-57
2023/05/11 00:26:13;;;;;;;9.82;5.10;;;11.10;99.90;;;;;;5079530;28;20047;-55
2023/05/11 00:28:39;;;;;;;9.02;5.18;;;11.10;99.90;;;;;;5077689;28;20040;-56
2023/05/11 00:31:05;;;;;;;11.85;6.20;;;11.30;99.90;;;;;;5079886;28;20052;-56
2023/05/11 00:33:31;;;;;;;10.13;4.88;;;11.20;99.90;;;;;;5077739;28;20049;-57
2023/05/11 00:35:57;;;;;;;8.18;4.72;;;10.90;99.90;;;;;;5079293;28;20048;-56
2023/05/11 00:38:23;;;;;;;9.27;4.68;;;11.20;99.90;;;;;;5078821;28;20036;-56
2023/05/11 00:40:49;;;;;;;9.85;5.22;;;11.10;99.90;;;;;;5078190;28;20046;-58
2023/05/11 00:43:15;;;;;;;9.80;5.43;;;11.10;99.90;;;;;;5079413;28;20384;-58
2023/05/11 00:45:41;;;;;;;10.43;5.50;;;11.20;99.90;;;;;;5077305;28;20063;-58
2023/05/11 00:48:07;;;;;;;9.52;4.75;;;11.00;99.90;;;;;;5079546;28;20040;-58
2023/05/11 00:50:34;;;;;;;10.38;5.78;;;11.00;99.90;;;;;;5077396;28;20037;-57
2023/05/11 00:53:00;;;;;;;12.00;5.13;;;10.90;99.90;;;;;;5079158;28;20040;-58
2023/05/11 00:55:27;;;;;;;9.52;5.35;;;11.00;99.90;;;;;;5078377;28;20044;-57
2023/05/11 00:57:52;;;;;;;9.98;5.20;;;10.90;99.90;;;;;;5077767;28;20037;-58
2023/05/11 01:00:18;;;;;;;10.98;5.68;;;10.70;99.90;;;;;;5078794;28;20416;-58
2023/05/11 01:02:44;;;;;;;20.30;5.57;;;10.50;99.90;;;;;;5077399;28;20048;-58
2023/05/11 01:05:10;;;;;;;13.55;5.80;;;10.60;99.90;;;;;;5079122;28;20044;-57
2023/05/11 01:07:40;;;;;;;12.32;4.90;;;10.90;99.90;;;;;;5077225;28;20044;-57
2023/05/11 01:10:12;;;;;;;19.42;4.80;;;10.90;99.90;;;;;;5079015;28;20130;-57
2023/05/11 01:13:14;;;;;;;12.75;5.60;;;10.70;99.90;;;;;;5077988;28;20063;-58
2023/05/11 01:15:48;;;;;;;12.82;5.75;;;10.80;99.90;;;;;;5077000;28;20040;-57
2023/05/11 01:18:18;;;;;;;9.95;4.82;;;11.00;99.90;;;;;;5041290;28;1092427;-58
2023/05/11 01:20:47;;;;;;;11.10;5.10;;;10.80;99.90;;;;;;5077937;28;20052;-58
2023/05/11 01:23:46;;;;;;;14.38;5.15;;;11.10;99.90;;;;;;5078289;28;20078;-58
2023/05/11 01:26:18;;;;;;;19.40;5.10;;;11.10;99.90;;;;;;5079779;28;20041;-58
2023/05/11 01:29:02;;;;;;;13.15;5.65;;;10.90;99.90;;;;;;5077296;28;20108;-58
2023/05/11 01:31:31;;;;;;;42.38;5.70;;;11.10;99.90;;;;;;5061743;28;20061;-58
2023/05/11 01:34:03;;;;;;;12.98;5.20;;;10.70;99.90;;;;;;5078382;28;20051;-57
2023/05/11 01:36:47;;;;;;;11.93;5.43;;;10.60;99.90;;;;;;5078082;28;20484;-58
2023/05/11 01:39:15;;;;;;;31.30;5.50;;;10.90;99.90;;;;;;5079597;28;20041;-57
2023/05/11 01:41:44;;;;;;;22.17;5.53;;;10.90;99.90;;;;;;5076981;28;20235;-58
2023/05/11 01:44:11;;;;;;;12.52;5.25;;;10.50;99.90;;;;;;5079580;28;20047;-57
2023/05/11 01:46:38;;;;;;;11.25;5.22;;;11.00;99.90;;;;;;5077836;28;20032;-58
2023/05/11 01:49:08;;;;;;;13.77;6.07;;;11.00;99.90;;;;;;5078446;28;20048;-58
2023/05/11 01:51:38;;;;;;;26.25;6.10;;;11.00;99.90;;;;;;5078757;28;20051;-58
2023/05/11 01:54:08;;;;;;;16.85;5.28;;;11.00;99.90;;;;;;5059628;28;20083;-57
2023/05/11 01:56:36;;;;;;;44.88;5.05;;;11.00;99.90;;;;;;5079252;28;20045;-58
2023/05/11 01:59:03;;;;;;;19.38;3.90;;;10.90;99.90;;;;;;5076956;28;20055;-56
2023/05/11 02:01:30;;;;;;;12.75;4.40;;;10.70;99.90;;;;;;5079027;28;20048;-58
2023/05/11 02:03:58;;;;;;;25.30;4.05;;;10.60;99.90;;;;;;5060239;28;20049;-57
2023/05/11 02:06:25;;;;;;;19.50;4.25;;;10.60;99.90;;;;;;5077716;28;20044;-57
2023/05/11 02:08:52;;;;;;;21.42;3.83;;;10.90;99.90;;;;;;5078292;28;20084;-58
2023/05/11 02:11:21;;;;;;;14.45;3.65;;;11.00;99.90;;;;;;5076864;28;20151;-58
2023/05/11 02:13:50;;;;;;;22.85;4.25;;;10.90;99.90;;;;;;5079054;28;20037;-58
2023/05/11 02:16:18;;;;;;;11.25;3.58;;;11.00;99.90;;;;;;5076852;28;20047;-57
2023/05/11 02:18:45;;;;;;;15.48;3.72;;;10.80;99.90;;;;;;5078467;28;20168;-57
2023/05/11 02:21:13;;;;;;;30.63;3.28;;;10.80;99.90;;;;;;5077825;28;20055;-57
2023/05/11 02:23:40;;;;;;;29.02;3.47;;;10.80;99.90;;;;;;5077186;28;20064;-57
2023/05/11 02:26:08;;;;;;;30.27;3.53;;;10.40;99.90;;;;;;5060524;28;20084;-58
2023/05/11 02:28:34;;;;;;;21.77;3.55;;;10.70;99.90;;;;;;5076704;28;20040;-58
2023/05/11 02:31:04;;;;;;;19.75;3.20;;;10.70;99.90;;;;;;5078649;28;20094;-58
2023/05/11 02:33:42;;;;;;;9.00;3.00;;;10.60;99.90;;;;;;5076950;28;20090;-58
2023/05/11 02:36:09;;;;;;;20.90;3.20;;;10.90;99.90;;;;;;5077749;28;20067;-58
2023/05/11 02:38:37;;;;;;;27.08;3.40;;;10.60;99.90;;;;;;5078164;28;20095;-58
2023/05/11 02:41:12;;;;;;;18.52;3.53;;;10.50;99.90;;;;;;5077006;28;20072;-58
2023/05/11 02:43:45;;;;;;;21.20;3.28;;;10.60;99.90;;;;;;5078673;28;20075;-57
2023/05/11 02:46:14;;;;;;;20.80;3.50;;;10.80;99.90;;;;;;5076524;28;20043;-58
2023/05/11 02:48:44;;;;;;;26.25;3.45;;;10.80;99.90;;;;;;5078311;28;20052;-57
2023/05/11 02:51:12;;;;;;;17.27;3.40;;;10.50;99.90;;;;;;5077442;28;20492;-58
2023/05/11 02:53:41;;;;;;;14.32;3.00;;;10.90;99.90;;;;;;5076946;28;20052;-58
2023/05/11 02:56:08;;;;;;;23.27;3.28;;;10.60;99.90;;;;;;5078343;28;20095;-58
2023/05/11 02:58:34;;;;;;;48.05;4.15;;;10.60;99.90;;;;;;5076355;28;20048;-58
2023/05/11 03:01:00;;;;;;;41.90;3.42;;;10.50;99.90;;;;;;5078054;28;20066;-58
2023/05/11 03:03:26;;;;;;;19.63;3.08;;;10.70;99.90;;;;;;5076504;28;20041;-57
2023/05/11 03:05:52;;;;;;;6.63;2.28;;;10.50;99.90;;;;;;5078067;28;20041;-58
2023/05/11 03:08:18;;;;;;;5.93;2.50;;;10.70;99.90;;;;;;5077393;28;20080;-58
2023/05/11 03:10:45;;;;;;;9.65;3.25;;;10.60;99.90;;;;;;5058867;28;20056;-58
2023/05/11 03:13:11;;;;;;;17.08;3.78;;;10.40;99.90;;;;;;5078158;28;20108;-57
2023/05/11 03:15:38;;;;;;;19.35;3.45;;;10.50;99.90;;;;;;5058529;28;20049;-57
2023/05/11 03:18:05;;;;;;;22.77;3.05;;;10.70;99.90;;;;;;5078211;28;20562;-57
2023/05/11 03:20:34;;;;;;;7.80;3.22;;;10.50;99.90;;;;;;5076176;28;20060;-58
2023/05/11 03:23:00;;;;;;;17.50;3.45;;;10.80;99.90;;;;;;5077745;28;20488;-57
2023/05/11 03:25:28;;;;;;;20.70;3.03;;;10.70;99.90;;;;;;5077379;28;20055;-58
2023/05/11 03:27:55;;;;;;;14.20;3.47;;;10.40;99.90;;;;;;5076595;28;20076;-58
2023/05/11 03:30:22;;;;;;;16.08;3.45;;;10.80;99.90;;;;;;5077753;28;20088;-58
2023/05/11 03:32:48;;;;;;;21.05;3.05;;;10.70;99.90;;;;;;5075923;28;20483;-57
2023/05/11 03:35:14;;;;;;;29.17;3.70;;;10.30;99.90;;;;;;5078171;28;20048;-58
2023/05/11 03:37:41;;;;;;;25.15;3.70;;;10.70;99.90;;;;;;5076024;28;20048;-60
2023/05/11 03:40:08;;;;;;;16.20;3.20;;;10.70;99.90;;;;;;5077746;28;20536;-57
2023/05/11 03:42:36;;;;;;;26.05;3.10;;;10.40;99.90;;;;;;5076965;28;20052;-58
2023/05/11 03:45:04;;;;;;;24.00;3.70;;;10.40;99.90;;;;;;5076428;28;20052;-57
2023/05/11 03:47:33;;;;;;;15.20;3.88;;;10.60;99.90;;;;;;5079561;28;20094;-58
2023/05/11 03:50:00;;;;;;;18.70;3.67;;;10.70;99.90;;;;;;5079438;28;20098;-58
2023/05/11 03:52:27;;;;;;;25.50;3.70;;;10.60;99.90;;;;;;5063505;28;20040;-58
2023/05/11 03:54:52;;;;;;;30.08;4.00;;;10.80;99.90;;;;;;5079557;28;20040;-58
2023/05/11 03:57:18;;;;;;;19.02;3.70;;;10.70;99.90;;;;;;5080979;28;20041;-58
2023/05/11 03:59:44;;;;;;;17.45;3.42;;;10.80;99.90;;;;;;5080528;28;20055;-58
2023/05/11 04:02:09;;;;;;;22.92;3.60;;;10.60;99.90;;;;;;5079963;28;20108;-58
2023/05/11 04:04:35;;;;;;;19.33;4.05;;;10.50;99.90;;;;;;5081059;28;20490;-58
2023/05/11 04:07:01;;;;;;;21.02;3.60;;;10.50;99.90;;;;;;5079302;28;20045;-58
2023/05/11 04:09:27;;;;;;;14.93;2.97;;;10.80;99.90;;;;;;5063553;28;20497;-58
2023/05/11 04:11:52;;;;;;;28.50;4.00;;;10.50;99.90;;;;;;5061310;28;20070;-57
2023/05/11 04:14:19;;;;;;;12.90;3.55;;;10.80;99.90;;;;;;5081007;28;20064;-58
2023/05/11 04:16:45;;;;;;;15.88;4.40;;;10.40;99.90;;;;;;5079971;28;20063;-58
2023/05/11 04:19:11;;;;;;;14.27;4.90;;;10.50;99.90;;;;;;5079806;28;20048;-58
2023/05/11 04:21:36;;;;;;;14.32;5.25;;;10.80;99.90;;;;;;5080641;28;20040;-57
2023/05/11 04:24:02;;;;;;;12.30;4.93;;;10.60;99.90;;;;;;5078968;28;20087;-57
2023/05/11 04:26:28;;;;;;;17.13;5.95;;;10.90;99.90;;;;;;5081174;28;20036;-58
2023/05/11 04:28:54;;;;;;;25.00;7.13;;;10.60;99.90;;;;;;5078618;28;20032;-57
2023/05/11 04:31:20;;;;;;;19.42;6.45;;;10.80;99.90;;;;;;5062847;28;20408;-58
2023/05/11 04:33:45;;;;;;;24.73;7.25;;;10.80;99.90;;;;;;5079481;28;20037;-57
2023/05/11 04:36:11;;;;;;;19.42;7.50;;;10.70;99.90;;;;;;5079519;28;20052;-58
2023/05/11 04:38:37;;;;;;;22.63;7.13;;;10.70;99.90;;;;;;5080587;28;20100;-58
2023/05/11 04:41:04;;;;;;;22.52;9.07;;;10.90;99.90;;;;;;5078750;28;20044;-58
2023/05/11 04:43:30;;;;;;;18.00;8.98;;;10.80;99.90;;;;;;5080585;28;20040;-58
2023/05/11 04:45:56;;;;;;;24.90;9.48;;;10.70;99.90;;;;;;5078717;28;20096;-58
2023/05/11 04:48:21;;;;;;;24.35;8.43;;;10.40;99.90;;;;;;5080565;28;20533;-58
2023/05/11 04:50:47;;;;;;;39.47;8.75;;;10.90;99.90;;;;;;5079060;28;20043;-58
2023/05/11 04:53:13;;;;;;;32.10;8.63;;;10.70;99.90;;;;;;5079560;28;20087;-58
2023/05/11 04:55:39;;;;;;;28.25;9.38;;;10.50;99.90;;;;;;5079744;28;20530;-58
2023/05/11 04:58:05;;;;;;;28.75;8.60;;;10.40;99.90;;;;;;5077652;28;20048;-58
2023/05/11 05:00:30;;;;;;;30.40;9.05;;;10.90;99.90;;;;;;5079751;28;20041;-58
2023/05/11 05:02:56;;;;;;;30.08;8.68;;;10.90;99.90;;;;;;5078095;28;20040;-58
2023/05/11 05:05:22;;;;;;;41.10;8.73;;;10.90;99.90;;;;;;5080369;28;20063;-58
2023/05/11 05:07:48;;;;;;;33.97;9.23;;;10.80;99.90;;;;;;5060519;28;20622;-57
2023/05/11 05:10:13;;;;;;;32.70;9.52;;;10.80;99.90;;;;;;5079407;28;20040;-57
2023/05/11 05:12:39;;;;;;;22.90;9.75;;;10.60;99.90;;;;;;5079452;28;20046;-57
2023/05/11 05:15:06;;;;;;;28.38;10.45;;;10.40;99.90;;;;;;5078172;28;20578;-58
2023/05/11 05:17:32;;;;;;;38.45;10.60;;;10.70;99.90;;;;;;5079553;28;20061;-56
2023/05/11 05:19:58;;;;;;;31.38;10.23;;;10.80;99.90;;;;;;5077656;28;20044;-57
2023/05/11 05:22:24;;;;;;;27.27;11.02;;;10.50;99.90;;;;;;5079813;28;20040;-58
2023/05/11 05:24:50;;;;;;;27.00;10.90;;;10.70;99.90;;;;;;5077888;28;20048;-58
2023/05/11 05:27:15;;;;;;;31.60;13.25;;;11.00;99.90;;;;;;5079438;28;20040;-57
2023/05/11 05:29:41;;;;;;;34.30;13.63;;;11.10;99.90;;;;;;5078693;28;20068;-58
2023/05/11 05:32:07;;;;;;;29.65;12.80;;;11.10;99.90;;;;;;5078193;28;20049;-57
2023/05/11 05:34:32;;;;;;;30.60;13.13;;;11.10;99.90;;;;;;5079184;28;20040;-57
2023/05/11 05:36:58;;;;;;;30.73;12.63;;;11.10;99.90;;;;;;5077658;28;20033;-56
2023/05/11 05:39:24;;;;;;;31.45;14.68;;;11.20;99.90;;;;;;5079385;28;20044;-58
2023/05/11 05:41:50;;;;;;;31.58;13.65;;;10.90;99.90;;;;;;5077308;28;20107;-58
2023/05/11 05:44:15;;;;;;;27.83;12.57;;;11.20;99.90;;;;;;5079547;28;20040;-58
2023/05/11 05:46:41;;;;;;;23.00;10.60;;;11.30;99.90;;;;;;5078267;28;20569;-58
2023/05/11 05:49:06;;;;;;;22.48;9.85;;;11.00;99.90;;;;;;5078035;28;20518;-57
2023/05/11 05:51:32;;;;;;;21.00;9.60;;;11.00;99.90;;;;;;5079025;28;20401;-58
2023/05/11 05:53:58;;;;;;;18.27;8.80;;;11.10;99.90;;;;;;5058983;28;20119;-58
2023/05/11 05:56:23;;;;;;;17.95;8.38;;;11.00;99.90;;;;;;5079254;28;20060;-57
2023/05/11 05:58:49;;;;;;;17.27;8.35;;;11.00;99.90;;;;;;5076848;28;20048;-58
2023/05/11 06:01:15;;;;;;;20.95;8.52;;;11.30;99.90;;;;;;5079095;28;20048;-58
2023/05/11 06:03:41;;;;;;;17.92;8.05;;;11.00;99.90;;;;;;5077608;28;20037;-58
2023/05/11 06:06:06;;;;;;;17.55;7.75;;;11.10;99.90;;;;;;5078106;28;20037;-58
2023/05/11 06:08:32;;;;;;;16.80;8.48;;;11.40;99.90;;;;;;5078436;28;20142;-58
2023/05/11 06:10:58;;;;;;;15.02;7.10;;;11.20;99.90;;;;;;5076749;28;20055;-58
2023/05/11 06:13:24;;;;;;;16.17;7.47;;;11.20;99.90;;;;;;5078851;28;20103;-58
2023/05/11 06:15:49;;;;;;;17.98;8.27;;;11.60;99.90;;;;;;5076800;28;20083;-58
2023/05/11 06:18:15;;;;;;;16.83;8.27;;;11.50;99.90;;;;;;5078697;28;20083;-58
2023/05/11 06:20:41;;;;;;;16.92;8.55;;;11.40;99.90;;;;;;5077096;28;20114;-59
2023/05/11 06:23:07;;;;;;;17.65;7.93;;;11.30;99.90;;;;;;5077829;28;20048;-58
2023/05/11 06:25:34;;;;;;;18.77;8.38;;;11.50;99.90;;;;;;5078143;28;20112;-58
2023/05/11 06:28:00;;;;;;;18.75;8.38;;;11.20;99.90;;;;;;5076876;28;20044;-58
2023/05/11 06:30:26;;;;;;;20.48;8.38;;;11.50;99.90;;;;;;5078472;28;20048;-58
2023/05/11 06:32:51;;;;;;;16.63;7.30;;;11.50;99.90;;;;;;5058786;28;20104;-58
2023/05/11 06:35:17;;;;;;;16.35;7.28;;;11.80;99.90;;;;;;5078849;28;20452;-58
2023/05/11 06:37:42;;;;;;;13.32;6.68;;;11.90;99.90;;;;;;5076685;28;20496;-58
2023/05/11 06:40:09;;;;;;;15.57;8.13;;;11.80;99.90;;;;;;5078114;28;20091;-58
2023/05/11 06:42:34;;;;;;;17.25;8.57;;;11.90;99.90;;;;;;5077774;28;20055;-58
2023/05/11 06:45:00;;;;;;;15.32;8.23;;;11.70;99.90;;;;;;5077108;28;20097;-58
2023/05/11 06:47:26;;;;;;;14.70;7.90;;;11.90;99.90;;;;;;5078176;28;20577;-58
2023/05/11 06:49:51;;;;;;;15.55;8.35;;;12.10;99.90;;;;;;5076439;28;20050;-59
2023/05/11 06:52:17;;;;;;;17.73;8.88;;;12.00;99.90;;;;;;5078433;28;20135;-58
2023/05/11 06:54:43;;;;;;;15.05;8.52;;;12.10;99.90;;;;;;5058427;28;20535;-57
2023/05/11 06:57:09;;;;;;;16.05;8.50;;;11.90;99.90;;;;;;5078135;28;20040;-59
2023/05/11 06:59:34;;;;;;;15.82;8.18;;;12.10;99.90;;;;;;5077288;28;20689;-58
2023/05/11 07:02:00;;;;;;;16.00;7.95;;;12.10;99.90;;;;;;5077179;28;20047;-59
2023/05/11 07:04:26;;;;;;;16.48;8.38;;;12.20;99.90;;;;;;5077831;28;20127;-59
2023/05/11 07:06:51;;;;;;;17.77;8.93;;;11.80;99.90;;;;;;5057944;28;20112;-58
2023/05/11 07:09:17;;;;;;;17.55;9.05;;;12.10;99.90;;;;;;5060441;28;20373;-59
2023/05/11 07:11:43;;;;;;;17.77;8.40;;;12.30;99.90;;;;;;5058561;28;20100;-59
2023/05/11 07:14:09;;;;;;;16.20;8.35;;;12.00;99.90;;;;;;5060146;28;20453;-59
2023/05/11 07:16:37;;;;;;;14.75;7.72;;;12.10;99.90;;;;;;5058807;28;20079;-59
2023/05/11 07:19:07;;;;;;;12.18;6.28;;;12.20;99.90;;;;;;5076905;28;20074;-58
2023/05/11 07:21:34;;;;;;;13.43;7.65;;;12.30;99.90;;;;;;5078144;28;20055;-58
2023/05/11 07:24:00;;;;;;;13.07;7.55;;;12.30;99.90;;;;;;5080199;28;20239;-58
2023/05/11 07:26:25;;;;;;;14.05;7.60;;;12.50;99.90;;;;;;5082098;28;20036;-58
2023/05/11 07:28:51;;;;;;;12.73;7.07;;;12.60;99.90;;;;;;5079748;28;20036;-58
2023/05/11 07:31:17;;;;;;;11.10;6.13;;;12.80;99.90;;;;;;5081966;28;20377;-59
2023/05/11 07:33:42;;;;;;;11.07;6.13;;;12.80;99.90;;;;;;5080586;28;20056;-58
2023/05/11 07:36:08;;;;;;;10.98;5.85;;;12.70;99.90;;;;;;5080664;28;20057;-58
2023/05/11 07:38:35;;;;;;;10.15;5.68;;;12.60;99.90;;;;;;5081391;28;20036;-58
2023/05/11 07:41:01;;;;;;;9.98;5.90;;;12.50;99.90;;;;;;5079808;28;20052;-58
2023/05/11 07:43:26;;;;;;;10.68;6.00;;;12.80;99.90;;;;;;5081758;28;20048;-58
2023/05/11 07:45:52;;;;;;;11.77;6.18;;;12.90;99.90;;;;;;5079490;28;20040;-58
2023/05/11 07:48:18;;;;;;;11.43;5.55;;;12.50;99.90;;;;;;5063541;28;20047;-58
2023/05/11 07:50:43;;;;;;;10.10;5.47;;;12.60;99.90;;;;;;5062162;28;20052;-58
2023/05/11 07:53:09;;;;;;;11.15;5.70;;;12.60;99.90;;;;;;5080590;28;20303;-59
2023/05/11 07:55:35;;;;;;;11.27;5.97;;;12.90;99.90;;;;;;5081261;28;20076;-58
2023/05/11 07:58:01;;;;;;;11.18;6.43;;;12.70;99.90;;;;;;5079720;28;20091;-58
2023/05/11 08:00:26;;;;;;;10.88;5.82;;;12.70;99.90;;;;;;5081022;28;20087;-58
2023/05/11 08:02:52;;;;;;;11.40;6.47;;;12.80;99.90;;;;;;5078897;28;20048;-58
2023/05/11 08:05:18;;;;;;;11.98;6.22;;;12.60;99.90;;;;;;5081568;28;20083;-59
2023/05/11 08:07:45;;;;;;;12.40;6.53;;;12.90;99.90;;;;;;5079703;28;20041;-57
2023/05/11 08:10:11;;;;;;;11.82;6.13;;;12.90;99.90;;;;;;5080577;28;20049;-58
2023/05/11 08:12:37;;;;;;;10.73;5.80;;;12.90;99.90;;;;;;5080550;28;20124;-58
2023/05/11 08:15:03;;;;;;;12.20;5.90;;;13.10;99.90;;;;;;5079349;28;20667;-58
2023/05/11 08:17:29;;;;;;;12.27;6.45;;;13.20;99.90;;;;;;5080741;28;20523;-58
2023/05/11 08:19:55;;;;;;;12.07;6.20;;;13.00;99.90;;;;;;5078985;28;20051;-58
2023/05/11 08:22:21;;;;;;;11.43;6.60;;;13.20;99.90;;;;;;5081093;28;20048;-58
2023/05/11 08:24:48;;;;;;;10.50;6.28;;;13.10;99.90;;;;;;5079191;28;20041;-58
2023/05/11 08:27:14;;;;;;;12.98;6.50;;;13.40;99.90;;;;;;5080408;28;20037;-58
2023/05/11 08:29:39;;;;;;;12.95;6.80;;;13.20;99.90;;;;;;5079898;28;20045;-58
2023/05/11 08:32:05;;;;;;;11.18;6.25;;;13.20;99.90;;;;;;5079207;28;20091;-58
2023/05/11 08:34:31;;;;;;;11.88;6.47;;;13.60;99.90;;;;;;5080436;28;20492;-58
2023/05/11 08:37:00;;;;;;;13.88;6.68;;;13.50;99.90;;;;;;5078832;28;20128;-59
2023/05/11 08:39:26;;;;;;;17.35;7.35;;;13.40;99.90;;;;;;5080830;28;20105;-58
2023/05/11 08:41:53;;;;;;;12.25;6.93;;;13.20;99.90;;;;;;5078833;28;20059;-58
2023/05/11 08:44:20;;;;;;;10.73;6.05;;;13.30;99.90;;;;;;5080220;28;20045;-58
2023/05/11 08:46:49;;;;;;;14.18;7.32;;;13.40;99.90;;;;;;5079628;28;20044;-58
2023/05/11 08:49:15;;;;;;;11.43;6.70;;;13.40;99.90;;;;;;5060740;28;20693;-58
2023/05/11 08:51:41;;;;;;;11.13;6.30;;;13.20;99.90;;;;;;5080546;28;20140;-58
2023/05/11 08:54:07;;;;;;;12.60;7.65;;;13.40;99.90;;;;;;5043578;28;20577;-57
2023/05/11 08:56:35;;;;;;;13.15;7.32;;;13.40;99.90;;;;;;5080521;28;20041;-58
2023/05/11 08:59:03;;;;;;;12.23;7.00;;;13.30;99.90;;;;;;5060508;28;20088;-58
2023/05/11 09:01:30;;;;;;;13.23;6.60;;;13.20;99.90;;;;;;5079962;28;20037;-58
2023/05/11 09:03:57;;;;;;;14.85;6.97;;;13.30;99.90;;;;;;5079481;28;20048;-57
2023/05/11 09:06:24;;;;;;;11.57;6.72;;;13.40;99.90;;;;;;5060555;28;20076;-58
2023/05/11 09:08:50;;;;;;;12.43;6.90;;;13.40;99.90;;;;;;5062219;28;20048;-57
2023/05/11 09:11:16;;;;;;;13.77;7.57;;;13.30;99.90;;;;;;5078046;28;20147;-57
2023/05/11 09:13:42;;;;;;;13.80;7.75;;;13.40;99.90;;;;;;5080246;28;20071;-58
2023/05/11 09:16:08;;;;;;;13.48;8.40;;;13.50;99.90;;;;;;5078210;28;20040;-58
2023/05/11 09:18:33;;;;;;;14.13;9.35;;;13.60;99.90;;;;;;5061396;28;20049;-58
2023/05/11 09:21:01;;;;;;;16.30;10.05;;;13.50;99.90;;;;;;5061316;28;20036;-57
2023/05/11 09:23:27;;;;;;;15.48;10.13;;;13.80;99.90;;;;;;5078206;28;20099;-57
2023/05/11 09:25:53;;;;;;;19.08;14.52;;;14.00;99.90;;;;;;5079667;28;20048;-58
2023/05/11 09:28:26;;;;;;;20.55;16.42;;;13.90;99.90;;;;;;5077485;28;20492;-58
2023/05/11 09:30:52;;;;;;;19.63;15.02;;;13.90;99.90;;;;;;5061654;28;20175;-57
2023/05/11 09:33:25;;;;;;;17.10;13.45;;;13.90;99.90;;;;;;5077485;28;20088;-58
2023/05/11 09:35:51;;;;;;;17.65;14.38;;;14.00;99.90;;;;;;5078716;28;20048;-58
2023/05/11 09:38:19;;;;;;;19.30;13.68;;;13.90;99.90;;;;;;5078860;28;20043;-58
2023/05/11 09:40:53;;;;;;;18.13;12.70;;;14.20;99.90;;;;;;5077634;28;20048;-58
2023/05/11 09:43:27;;;;;;;14.50;10.32;;;14.30;99.90;;;;;;5079045;28;20052;-58
2023/05/11 09:45:54;;;;;;;15.93;10.95;;;14.30;99.90;;;;;;5076751;28;20049;-57
2023/05/11 09:48:20;;;;;;;14.70;11.05;;;14.20;99.90;;;;;;5079345;28;20045;-58
2023/05/11 09:50:48;;;;;;;15.25;10.57;;;14.20;99.90;;;;;;5078129;28;20526;-57
2023/05/11 09:53:13;;;;;;;15.35;11.43;;;14.30;99.90;;;;;;5077956;28;20052;-58
2023/05/11 09:55:53;;;;;;;15.95;12.60;;;14.20;99.90;;;;;;5078519;28;20075;-58
2023/05/11 09:58:19;;;;;;;17.58;13.85;;;14.40;99.90;;;;;;5077075;28;20105;-58
2023/05/11 10:00:52;;;;;;;20.08;15.23;;;14.30;99.90;;;;;;5079430;28;20068;-58
2023/05/11 10:03:18;;;;;;;18.27;14.05;;;14.30;99.90;;;;;;5077109;28;20118;-57
2023/05/11 10:05:58;;;;;;;18.35;13.70;;;14.40;99.90;;;;;;5078717;28;20116;-58
2023/05/11 10:08:33;;;;;;;16.17;11.40;;;14.40;99.90;;;;;;5078552;28;20511;-58
2023/05/11 10:11:01;;;;;;;14.73;11.82;;;14.70;99.90;;;;;;5077061;28;20040;-58
2023/05/11 10:13:29;;;;;;;15.70;11.82;;;14.70;99.90;;;;;;5079203;28;20067;-58
2023/05/11 10:15:57;;;;;;;15.73;10.80;;;14.50;99.90;;;;;;5076582;28;20375;-57
2023/05/11 10:18:24;;;;;;;16.65;13.13;;;14.50;99.90;;;;;;5078271;28;20052;-58
2023/05/11 10:20:51;;;;;;;15.30;11.80;;;14.70;99.90;;;;;;5077600;28;20045;-57
2023/05/11 10:23:18;;;;;;;17.15;12.77;;;14.60;99.90;;;;;;5059494;28;20048;-57
2023/05/11 10:25:45;;;;;;;16.38;12.63;;;14.70;99.90;;;;;;5078302;28;20080;-57
2023/05/11 10:28:10;;;;;;;15.65;11.68;;;14.90;99.90;;;;;;5076601;28;20107;-59
2023/05/11 10:30:37;;;;;;;14.73;10.60;;;14.80;99.90;;;;;;5078128;28;20040;-58
2023/05/11 10:33:05;;;;;;;17.45;11.18;;;14.90;99.90;;;;;;5076468;28;20051;-58
2023/05/11 10:35:31;;;;;;;15.93;11.13;;;14.80;99.90;;;;;;5078281;28;20537;-58
2023/05/11 10:37:57;;;;;;;15.70;11.20;;;15.00;99.90;;;;;;5077223;28;20115;-58
2023/05/11 10:40:23;;;;;;;13.95;9.25;;;14.90;99.90;;;;;;5058848;28;20215;-57
2023/05/11 10:43:21;;;;;;;15.48;9.77;;;15.10;99.90;;;;;;5077910;28;20040;-57
2023/05/11 10:46:18;;;;;;;13.40;9.75;;;15.10;99.90;;;;;;5076438;28;20446;-58
2023/05/11 10:48:56;;;;;;;13.88;9.10;;;15.20;99.90;;;;;;5059393;28;20373;-57
2023/05/11 10:51:37;;;;;;;12.40;8.57;;;15.40;99.90;;;;;;5077945;28;20080;-57
2023/05/11 10:54:38;;;;;;;16.00;8.20;;;15.50;99.90;;;;;;5076049;28;20492;-57
2023/05/11 10:57:11;;;;;;;11.88;8.45;;;15.30;99.90;;;;;;5077272;28;20053;-58
2023/05/11 10:59:52;;;;;;;11.75;7.95;;;15.40;99.90;;;;;;5081455;28;20092;-58
2023/05/11 11:02:18;;;;;;;12.85;9.85;;;15.50;99.90;;;;;;5080162;28;20113;-60
2023/05/11 11:04:45;;;;;;;12.82;9.90;;;15.80;99.90;;;;;;5082278;28;20044;-58
2023/05/11 11:07:15;;;;;;;14.27;9.48;;;15.70;99.90;;;;;;5080352;28;20052;-58
2023/05/11 11:09:53;;;;;;;10.77;7.75;;;15.80;99.90;;;;;;5082246;28;20048;-58
2023/05/11 11:12:20;;;;;;;10.27;7.55;;;15.90;99.90;;;;;;5081307;28;20052;-57
2023/05/11 11:14:58;;;;;;;11.52;9.02;;;15.70;99.90;;;;;;5080781;28;20885;-58
2023/05/11 11:17:26;;;;;;;11.13;8.02;;;15.90;99.90;;;;;;5082177;28;20095;-58
2023/05/11 11:19:52;;;;;;;10.32;7.60;;;16.00;99.90;;;;;;5080113;28;20128;-58
2023/05/11 11:22:33;;;;;;;12.48;8.70;;;16.20;99.90;;;;;;5082260;28;20040;-58
2023/05/11 11:25:00;;;;;;;10.85;7.63;;;16.00;99.90;;;;;;5080839;28;20381;-57
2023/05/11 11:27:43;;;;;;;10.88;7.32;;;16.30;99.90;;;;;;5081050;28;20056;-58
2023/05/11 11:30:29;;;;;;;12.30;9.02;;;16.30;99.90;;;;;;5081705;28;20083;-58
2023/05/11 11:33:15;;;;;;;10.77;8.02;;;16.20;99.90;;;;;;5079996;28;20052;-58
2023/05/11 11:35:40;;;;;;;13.32;10.77;;;16.30;99.90;;;;;;5064016;28;20052;-58
2023/05/11 11:38:13;;;;;;;15.38;12.35;;;16.30;99.90;;;;;;5081197;28;20058;-59
2023/05/11 11:40:40;;;;;;;14.00;11.30;;;16.50;99.90;;;;;;5079976;28;20091;-58
2023/05/11 11:43:14;;;;;;;12.70;10.50;;;16.50;99.90;;;;;;5081676;28;20055;-58
2023/05/11 11:45:56;;;;;;;10.57;8.15;;;16.60;99.90;;;;;;5079572;28;20060;-57
2023/05/11 11:48:36;;;;;;;10.68;8.35;;;16.70;99.90;;;;;;5081623;28;20052;-57
2023/05/11 11:51:10;;;;;;;10.57;7.85;;;16.60;99.90;;;;;;5080976;28;20059;-58
2023/05/11 11:53:36;;;;;;;11.38;8.65;;;16.60;99.90;;;;;;5079518;28;20068;-58
2023/05/11 11:56:10;;;;;;;10.48;8.07;;;16.40;99.90;;;;;;5081645;28;20076;-58
2023/05/11 11:58:42;;;;;;;10.98;9.25;;;16.50;99.90;;;;;;5079563;28;20095;-58
2023/05/11 12:01:08;;;;;;;12.50;10.48;;;16.40;99.90;;;;;;5081358;28;20068;-58
2023/05/11 12:03:35;;;;;;;13.90;11.20;;;16.40;99.90;;;;;;5079809;28;20492;-57
2023/05/11 12:06:04;;;;;;;14.05;12.07;;;16.30;99.90;;;;;;5080120;28;20047;-57
2023/05/11 12:08:32;;;;;;;13.15;11.45;;;16.30;99.90;;;;;;5080358;28;20483;-58
2023/05/11 12:11:00;;;;;;;12.32;10.95;;;16.40;99.90;;;;;;5079103;28;20558;-58
2023/05/11 12:13:26;;;;;;;12.00;10.40;;;16.50;99.90;;;;;;5081460;28;20044;-58
2023/05/11 12:16:11;;;;;;;13.40;12.00;;;16.50;99.90;;;;;;5078998;28;20108;-58
2023/05/11 12:18:40;;;;;;;11.50;9.30;;;16.50;99.90;;;;;;5080355;28;20512;-58
2023/05/11 12:21:06;;;;;;;10.40;9.30;;;16.90;99.90;;;;;;5080811;28;20080;-58
2023/05/11 12:23:32;;;;;;;12.02;9.93;;;16.70;99.90;;;;;;5079126;28;20068;-58
2023/05/11 12:26:07;;;;;;;10.55;9.13;;;16.50;99.90;;;;;;5080969;28;20128;-57
2023/05/11 12:28:33;;;;;;;10.35;8.13;;;17.00;99.90;;;;;;5078819;28;20428;-58
2023/05/11 12:30:58;;;;;;;10.13;8.90;;;17.20;99.90;;;;;;5080836;28;20062;-58
2023/05/11 12:33:25;;;;;;;9.57;7.68;;;17.30;99.90;;;;;;5079131;28;20047;-57
2023/05/11 12:35:55;;;;;;;9.50;7.50;;;17.10;99.90;;;;;;5079884;28;20052;-57
2023/05/11 12:38:21;;;;;;;9.98;7.43;;;17.10;99.90;;;;;;5080338;28;20079;-58
2023/05/11 12:40:51;;;;;;;9.18;6.60;;;16.70;99.90;;;;;;5078833;28;20047;-56